Nashotah, WI

04:28 AM CDT del 01 novembre 2014 (GMT -0500)
Waukesha County | Change Station
CLOSE
Current Station
Aeroporto
Location: Waukesha,
Altitudine: 912 ft
Stazioni meteo nelle vicinanze

Alt. 912 ft 43.04 °N, 88.25 °W | Updated 13 minutes ago

Coperto
Coperto
32 °F
Sembra 24 °F
N
9
Vento Variabile Vento da NNO

Oggi
Massima -- | Minima -- °F
--% Possibilità di precip.
Ieri
Massima -- | Minima -- °F
Precip. -- in
7:28 AM 5:45 PM
Gobba a ponente, 64% visible
Pressione 30.40 in
Visibilità 10.0 miglia
Nuvole Coperto 3200 ft
Raffreddamento del vento 24 °F
Punto di rugiada 21 °F
Umidità 64%
Piovosità 0.00 in
Spessore del manto nevoso Non disponibile.
Raggi UV 0 fuori da 12
Polline .40 fuori da 12
Qualità dell'aria Non disponibile.
Flu Activity Non disponibile.
METAR KUES 010915Z AUTO 34008KT 10SM OVC032 00/M06 A3040 RMK AO2

More Conditions Fewer Conditions

Pressione 30.40 in
Visibilità 10.0 miglia
Nuvole Coperto 3200 ft
Raffreddamento del vento 24 °F
Punto di rugiada 21 °F
Umidità 64%
Piovosità 0.00 in
Spessore del manto nevoso Non disponibile.
Raggi UV 0 fuori da 12
Polline .40 fuori da 12
Qualità dell'aria Non disponibile.
Flu Activity Non disponibile.
METAR KUES 010915Z AUTO 34008KT 10SM OVC032 00/M06 A3040 RMK AO2

More Conditions Fewer Conditions

10-Day Weather Forecast

Almanac

Astronomia

Nov. 01, 2014 Alba Tramonto
Ora attuale
Crepuscolo civile
Crepuscolo nautico
Crepuscolo astronomico
Luna
Estensione della luce visibile
Lunghezza del giorno
Tomorrow will be .
, % of the Moon is Illuminated

Gli estremi di oggi

State Highs State Lows

Community

WunderPhotos

Upload Photos

1,766,872 foto caricate!

WunderBlogs® & News

Nearby

Qualità dell'aria

  Qualità dell'aria Indice AQ Inquinante
Not available.

Profondità neve

Stazione Profondità Altitudine

Attività sismica

Città  Distanza Mag. Data & Ora
Minimo Magnitudo Mostrato è 2.5.

Temperature delle acque costiere

Località Temperatura

Stazioni meteo nelle vicinanze